13VA weather

7th Division State Police Headquarters Heliport
Fairfax, Virginia, United States

Public forecast

Using degrees Fahrenheit for public forecast. Weather courtesy of forecast.io.

METAR (pilot weather report)

Report is more than 2 hours old.

Closest report is Davison Army Air Field, 8.2 nm (15.2 km) SE. Retrieved 2019/05/25 00:56 UTC (5 hours ago):

KDAA 250056Z 34006KT 10SM FEW120 BKN250 25/12 A3007 RMK AO2A SLPNO WND DATA/ALSTG ESTMD $

TAF (pilot weather forecast)

Closest forecast is Davison Army Air Field, 8.2 nm (15.2 km) SE. Retrieved 2019/05/25 01:09 UTC (5 hours ago):

TAF KDAA 250100Z 2501/2607 33009KT 9999 BKN120 QNH2996INS WND VRB06KT AFT 2503 TX25/2521Z TN16/2509Z LAST NO AMDS AFT 2501 NEXT 2809